sensor_id;sensor_type;location;lat;lon;timestamp;P1;durP1;ratioP1;P2;durP2;ratioP2
20449;SDS011;10384;51.940;8.432;2023-02-26T00:01:41;8.17;;;4.77;;
20449;SDS011;10384;51.940;8.432;2023-02-26T00:04:08;9.83;;;5.63;;
20449;SDS011;10384;51.940;8.432;2023-02-26T00:06:35;9.43;;;4.80;;
20449;SDS011;10384;51.940;8.432;2023-02-26T00:09:02;7.00;;;5.17;;
20449;SDS011;10384;51.940;8.432;2023-02-26T00:11:29;4.37;;;2.30;;
20449;SDS011;10384;51.940;8.432;2023-02-26T00:13:55;7.60;;;3.27;;
20449;SDS011;10384;51.940;8.432;2023-02-26T00:16:31;7.10;;;3.87;;
20449;SDS011;10384;51.940;8.432;2023-02-26T00:18:58;5.10;;;3.27;;
20449;SDS011;10384;51.940;8.432;2023-02-26T00:21:24;7.40;;;3.30;;
20449;SDS011;10384;51.940;8.432;2023-02-26T00:23:51;8.47;;;4.10;;
20449;SDS011;10384;51.940;8.432;2023-02-26T00:26:17;7.20;;;3.27;;
20449;SDS011;10384;51.940;8.432;2023-02-26T00:28:43;7.07;;;3.80;;
20449;SDS011;10384;51.940;8.432;2023-02-26T00:31:10;7.57;;;4.27;;
20449;SDS011;10384;51.940;8.432;2023-02-26T00:33:36;7.40;;;5.90;;
20449;SDS011;10384;51.940;8.432;2023-02-26T00:36:04;11.93;;;6.00;;
20449;SDS011;10384;51.940;8.432;2023-02-26T00:38:33;8.60;;;5.73;;
20449;SDS011;10384;51.940;8.432;2023-02-26T00:41:00;9.13;;;5.20;;
20449;SDS011;10384;51.940;8.432;2023-02-26T00:43:26;4.07;;;2.60;;
20449;SDS011;10384;51.940;8.432;2023-02-26T00:53:37;3.87;;;3.43;;
20449;SDS011;10384;51.940;8.432;2023-02-26T00:56:05;4.93;;;3.40;;
20449;SDS011;10384;51.940;8.432;2023-02-26T00:58:31;10.23;;;2.60;;
20449;SDS011;10384;51.940;8.432;2023-02-26T01:00:58;5.90;;;3.07;;
20449;SDS011;10384;51.940;8.432;2023-02-26T01:03:24;8.73;;;3.40;;
20449;SDS011;10384;51.940;8.432;2023-02-26T01:05:51;6.77;;;3.80;;
20449;SDS011;10384;51.940;8.432;2023-02-26T01:08:25;6.27;;;1.90;;
20449;SDS011;10384;51.940;8.432;2023-02-26T01:10:51;4.30;;;3.60;;
20449;SDS011;10384;51.940;8.432;2023-02-26T01:13:17;8.23;;;4.73;;
20449;SDS011;10384;51.940;8.432;2023-02-26T01:15:45;7.80;;;5.40;;
20449;SDS011;10384;51.940;8.432;2023-02-26T01:18:13;7.77;;;4.73;;
20449;SDS011;10384;51.940;8.432;2023-02-26T01:20:45;10.40;;;4.50;;
20449;SDS011;10384;51.940;8.432;2023-02-26T01:23:17;8.53;;;4.63;;
20449;SDS011;10384;51.940;8.432;2023-02-26T01:25:48;4.40;;;2.90;;
20449;SDS011;10384;51.940;8.432;2023-02-26T01:28:15;8.53;;;4.47;;
20449;SDS011;10384;51.940;8.432;2023-02-26T01:30:41;8.63;;;4.20;;
20449;SDS011;10384;51.940;8.432;2023-02-26T01:33:09;6.27;;;2.77;;
20449;SDS011;10384;51.940;8.432;2023-02-26T01:35:41;8.00;;;2.57;;
20449;SDS011;10384;51.940;8.432;2023-02-26T01:40:57;9.50;;;4.30;;
20449;SDS011;10384;51.940;8.432;2023-02-26T01:46:17;8.97;;;5.00;;
20449;SDS011;10384;51.940;8.432;2023-02-26T01:48:54;9.50;;;2.73;;
20449;SDS011;10384;51.940;8.432;2023-02-26T01:54:05;7.77;;;4.83;;
20449;SDS011;10384;51.940;8.432;2023-02-26T01:56:31;5.73;;;3.20;;
20449;SDS011;10384;51.940;8.432;2023-02-26T01:58:57;7.20;;;5.37;;
20449;SDS011;10384;51.940;8.432;2023-02-26T02:01:23;6.73;;;4.53;;
20449;SDS011;10384;51.940;8.432;2023-02-26T02:03:49;5.07;;;4.27;;
20449;SDS011;10384;51.940;8.432;2023-02-26T02:06:17;8.53;;;4.73;;
20449;SDS011;10384;51.940;8.432;2023-02-26T02:08:44;8.83;;;3.50;;
20449;SDS011;10384;51.940;8.432;2023-02-26T02:11:10;4.23;;;2.47;;
20449;SDS011;10384;51.940;8.432;2023-02-26T02:13:44;5.33;;;3.23;;
20449;SDS011;10384;51.940;8.432;2023-02-26T02:16:16;5.90;;;4.03;;
20449;SDS011;10384;51.940;8.432;2023-02-26T02:23:56;4.47;;;2.73;;
20449;SDS011;10384;51.940;8.432;2023-02-26T02:31:53;3.27;;;1.67;;
20449;SDS011;10384;51.940;8.432;2023-02-26T02:34:26;2.97;;;1.57;;
20449;SDS011;10384;51.940;8.432;2023-02-26T02:36:58;3.40;;;1.97;;
20449;SDS011;10384;51.940;8.432;2023-02-26T02:39:27;5.57;;;3.87;;
20449;SDS011;10384;51.940;8.432;2023-02-26T02:41:58;5.47;;;1.67;;
20449;SDS011;10384;51.940;8.432;2023-02-26T02:44:26;5.63;;;4.03;;
20449;SDS011;10384;51.940;8.432;2023-02-26T02:46:54;10.20;;;5.27;;
20449;SDS011;10384;51.940;8.432;2023-02-26T02:49:23;8.13;;;4.00;;
20449;SDS011;10384;51.940;8.432;2023-02-26T02:51:51;5.23;;;3.43;;
20449;SDS011;10384;51.940;8.432;2023-02-26T02:57:19;7.33;;;5.37;;
20449;SDS011;10384;51.940;8.432;2023-02-26T02:59:46;6.20;;;3.30;;
20449;SDS011;10384;51.940;8.432;2023-02-26T03:04:42;2.30;;;2.00;;
20449;SDS011;10384;51.940;8.432;2023-02-26T03:07:08;3.13;;;2.10;;
20449;SDS011;10384;51.940;8.432;2023-02-26T03:09:35;5.63;;;1.60;;
20449;SDS011;10384;51.940;8.432;2023-02-26T03:12:01;2.50;;;1.17;;
20449;SDS011;10384;51.940;8.432;2023-02-26T03:14:27;5.03;;;3.73;;
20449;SDS011;10384;51.940;8.432;2023-02-26T03:22:14;4.60;;;2.47;;
20449;SDS011;10384;51.940;8.432;2023-02-26T03:27:09;3.90;;;1.77;;
20449;SDS011;10384;51.940;8.432;2023-02-26T03:29:46;2.70;;;0.97;;
20449;SDS011;10384;51.940;8.432;2023-02-26T03:32:26;3.23;;;2.23;;
20449;SDS011;10384;51.940;8.432;2023-02-26T03:37:25;3.60;;;1.60;;
20449;SDS011;10384;51.940;8.432;2023-02-26T03:39:54;5.00;;;1.97;;
20449;SDS011;10384;51.940;8.432;2023-02-26T03:42:22;3.20;;;2.60;;
20449;SDS011;10384;51.940;8.432;2023-02-26T03:45:04;5.23;;;2.20;;
20449;SDS011;10384;51.940;8.432;2023-02-26T03:47:30;5.37;;;3.20;;
20449;SDS011;10384;51.940;8.432;2023-02-26T03:49:58;6.07;;;4.17;;
20449;SDS011;10384;51.940;8.432;2023-02-26T03:52:27;6.40;;;3.03;;
20449;SDS011;10384;51.940;8.432;2023-02-26T03:54:56;7.73;;;4.13;;
20449;SDS011;10384;51.940;8.432;2023-02-26T03:57:24;7.27;;;3.83;;
20449;SDS011;10384;51.940;8.432;2023-02-26T03:59:50;8.30;;;4.00;;
20449;SDS011;10384;51.940;8.432;2023-02-26T04:02:18;10.80;;;4.47;;
20449;SDS011;10384;51.940;8.432;2023-02-26T04:07:12;9.50;;;3.87;;
20449;SDS011;10384;51.940;8.432;2023-02-26T04:09:46;6.63;;;3.80;;
20449;SDS011;10384;51.940;8.432;2023-02-26T04:12:12;6.33;;;3.40;;
20449;SDS011;10384;51.940;8.432;2023-02-26T04:14:39;5.93;;;2.97;;
20449;SDS011;10384;51.940;8.432;2023-02-26T04:17:05;4.27;;;2.90;;
20449;SDS011;10384;51.940;8.432;2023-02-26T04:19:31;5.03;;;2.50;;
20449;SDS011;10384;51.940;8.432;2023-02-26T04:21:57;8.63;;;4.53;;
20449;SDS011;10384;51.940;8.432;2023-02-26T04:24:23;6.47;;;4.40;;
20449;SDS011;10384;51.940;8.432;2023-02-26T04:26:49;6.73;;;4.47;;
20449;SDS011;10384;51.940;8.432;2023-02-26T04:29:15;6.17;;;4.20;;
20449;SDS011;10384;51.940;8.432;2023-02-26T04:31:41;7.13;;;4.10;;
20449;SDS011;10384;51.940;8.432;2023-02-26T04:34:07;5.47;;;4.57;;
20449;SDS011;10384;51.940;8.432;2023-02-26T04:36:33;7.37;;;4.87;;
20449;SDS011;10384;51.940;8.432;2023-02-26T04:38:59;10.17;;;4.47;;
20449;SDS011;10384;51.940;8.432;2023-02-26T04:41:25;3.97;;;3.30;;
20449;SDS011;10384;51.940;8.432;2023-02-26T04:43:51;6.53;;;3.10;;
20449;SDS011;10384;51.940;8.432;2023-02-26T04:46:17;6.73;;;3.97;;
20449;SDS011;10384;51.940;8.432;2023-02-26T04:48:43;5.60;;;4.10;;
20449;SDS011;10384;51.940;8.432;2023-02-26T04:51:09;5.10;;;3.17;;
20449;SDS011;10384;51.940;8.432;2023-02-26T04:53:35;6.63;;;2.47;;
20449;SDS011;10384;51.940;8.432;2023-02-26T04:56:01;3.83;;;2.00;;
20449;SDS011;10384;51.940;8.432;2023-02-26T04:58:27;4.63;;;2.60;;
20449;SDS011;10384;51.940;8.432;2023-02-26T05:00:53;6.10;;;2.17;;
20449;SDS011;10384;51.940;8.432;2023-02-26T05:03:19;6.33;;;4.17;;
20449;SDS011;10384;51.940;8.432;2023-02-26T05:05:46;10.97;;;4.60;;
20449;SDS011;10384;51.940;8.432;2023-02-26T05:08:12;8.83;;;4.57;;
20449;SDS011;10384;51.940;8.432;2023-02-26T05:10:38;10.97;;;4.50;;
20449;SDS011;10384;51.940;8.432;2023-02-26T05:13:04;7.97;;;3.10;;
20449;SDS011;10384;51.940;8.432;2023-02-26T05:15:30;7.30;;;4.20;;
20449;SDS011;10384;51.940;8.432;2023-02-26T05:17:56;6.47;;;4.13;;
20449;SDS011;10384;51.940;8.432;2023-02-26T05:20:22;5.67;;;3.67;;
20449;SDS011;10384;51.940;8.432;2023-02-26T05:22:48;8.20;;;4.20;;
20449;SDS011;10384;51.940;8.432;2023-02-26T05:25:14;5.97;;;3.73;;
20449;SDS011;10384;51.940;8.432;2023-02-26T05:27:40;4.77;;;3.20;;
20449;SDS011;10384;51.940;8.432;2023-02-26T05:30:07;11.00;;;4.63;;
20449;SDS011;10384;51.940;8.432;2023-02-26T05:32:34;2.13;;;1.77;;
20449;SDS011;10384;51.940;8.432;2023-02-26T05:35:00;4.47;;;2.93;;
20449;SDS011;10384;51.940;8.432;2023-02-26T05:37:26;3.67;;;2.83;;
20449;SDS011;10384;51.940;8.432;2023-02-26T05:39:52;3.40;;;2.30;;
20449;SDS011;10384;51.940;8.432;2023-02-26T05:42:18;4.33;;;1.80;;
20449;SDS011;10384;51.940;8.432;2023-02-26T05:44:44;3.07;;;1.57;;
20449;SDS011;10384;51.940;8.432;2023-02-26T05:47:10;3.17;;;2.00;;
20449;SDS011;10384;51.940;8.432;2023-02-26T05:49:36;4.37;;;1.60;;
20449;SDS011;10384;51.940;8.432;2023-02-26T05:52:01;11.60;;;4.20;;
20449;SDS011;10384;51.940;8.432;2023-02-26T05:54:27;5.60;;;3.57;;
20449;SDS011;10384;51.940;8.432;2023-02-26T05:56:54;9.37;;;5.47;;
20449;SDS011;10384;51.940;8.432;2023-02-26T05:59:20;9.73;;;5.47;;
20449;SDS011;10384;51.940;8.432;2023-02-26T06:01:46;8.47;;;5.13;;
20449;SDS011;10384;51.940;8.432;2023-02-26T06:04:12;6.20;;;4.43;;
20449;SDS011;10384;51.940;8.432;2023-02-26T06:06:38;6.03;;;4.00;;
20449;SDS011;10384;51.940;8.432;2023-02-26T06:09:04;5.63;;;3.43;;
20449;SDS011;10384;51.940;8.432;2023-02-26T06:11:30;5.43;;;3.33;;
20449;SDS011;10384;51.940;8.432;2023-02-26T06:13:56;8.90;;;4.57;;
20449;SDS011;10384;51.940;8.432;2023-02-26T06:16:23;6.43;;;4.60;;
20449;SDS011;10384;51.940;8.432;2023-02-26T06:18:49;9.03;;;5.60;;
20449;SDS011;10384;51.940;8.432;2023-02-26T06:21:15;6.67;;;4.00;;
20449;SDS011;10384;51.940;8.432;2023-02-26T06:23:41;3.53;;;2.53;;
20449;SDS011;10384;51.940;8.432;2023-02-26T06:26:07;2.93;;;0.90;;
20449;SDS011;10384;51.940;8.432;2023-02-26T06:28:34;3.23;;;1.67;;
20449;SDS011;10384;51.940;8.432;2023-02-26T06:31:00;4.43;;;1.67;;
20449;SDS011;10384;51.940;8.432;2023-02-26T06:33:26;5.17;;;3.27;;
20449;SDS011;10384;51.940;8.432;2023-02-26T06:35:52;5.77;;;2.90;;
20449;SDS011;10384;51.940;8.432;2023-02-26T06:38:18;2.73;;;1.90;;
20449;SDS011;10384;51.940;8.432;2023-02-26T06:40:45;3.70;;;1.53;;
20449;SDS011;10384;51.940;8.432;2023-02-26T06:43:12;5.77;;;1.03;;
20449;SDS011;10384;51.940;8.432;2023-02-26T06:45:38;2.17;;;1.00;;
20449;SDS011;10384;51.940;8.432;2023-02-26T06:48:04;1.63;;;0.73;;
20449;SDS011;10384;51.940;8.432;2023-02-26T06:50:30;1.30;;;0.90;;
20449;SDS011;10384;51.940;8.432;2023-02-26T06:52:56;3.23;;;0.83;;
20449;SDS011;10384;51.940;8.432;2023-02-26T06:55:22;4.47;;;1.30;;
20449;SDS011;10384;51.940;8.432;2023-02-26T06:57:52;1.40;;;0.80;;
20449;SDS011;10384;51.940;8.432;2023-02-26T07:00:18;3.50;;;1.10;;
20449;SDS011;10384;51.940;8.432;2023-02-26T07:02:44;3.00;;;1.10;;
20449;SDS011;10384;51.940;8.432;2023-02-26T07:05:10;2.60;;;0.90;;
20449;SDS011;10384;51.940;8.432;2023-02-26T07:07:36;1.57;;;0.90;;
20449;SDS011;10384;51.940;8.432;2023-02-26T07:10:02;4.67;;;1.13;;
20449;SDS011;10384;51.940;8.432;2023-02-26T07:12:29;3.40;;;0.90;;
20449;SDS011;10384;51.940;8.432;2023-02-26T07:14:54;1.40;;;0.80;;
20449;SDS011;10384;51.940;8.432;2023-02-26T07:17:20;5.80;;;1.00;;
20449;SDS011;10384;51.940;8.432;2023-02-26T07:19:47;1.70;;;0.70;;
20449;SDS011;10384;51.940;8.432;2023-02-26T07:22:13;1.83;;;0.70;;
20449;SDS011;10384;51.940;8.432;2023-02-26T07:24:40;3.43;;;0.70;;
20449;SDS011;10384;51.940;8.432;2023-02-26T07:27:06;4.67;;;0.90;;
20449;SDS011;10384;51.940;8.432;2023-02-26T07:29:32;2.63;;;1.13;;
20449;SDS011;10384;51.940;8.432;2023-02-26T07:31:58;1.77;;;0.80;;
20449;SDS011;10384;51.940;8.432;2023-02-26T07:34:24;5.60;;;1.40;;
20449;SDS011;10384;51.940;8.432;2023-02-26T07:36:50;3.93;;;1.00;;
20449;SDS011;10384;51.940;8.432;2023-02-26T07:39:16;2.90;;;1.00;;
20449;SDS011;10384;51.940;8.432;2023-02-26T07:41:42;4.57;;;0.90;;
20449;SDS011;10384;51.940;8.432;2023-02-26T07:44:08;4.07;;;1.30;;
20449;SDS011;10384;51.940;8.432;2023-02-26T07:46:34;3.00;;;1.23;;
20449;SDS011;10384;51.940;8.432;2023-02-26T07:49:00;1.83;;;0.90;;
20449;SDS011;10384;51.940;8.432;2023-02-26T07:51:26;4.57;;;2.43;;
20449;SDS011;10384;51.940;8.432;2023-02-26T07:53:52;2.10;;;1.10;;
20449;SDS011;10384;51.940;8.432;2023-02-26T07:56:18;2.00;;;0.83;;
20449;SDS011;10384;51.940;8.432;2023-02-26T07:58:44;1.77;;;0.70;;
20449;SDS011;10384;51.940;8.432;2023-02-26T08:01:10;4.00;;;1.60;;
20449;SDS011;10384;51.940;8.432;2023-02-26T08:03:36;2.17;;;0.87;;
20449;SDS011;10384;51.940;8.432;2023-02-26T08:06:02;4.63;;;0.80;;
20449;SDS011;10384;51.940;8.432;2023-02-26T08:08:29;2.37;;;0.73;;
20449;SDS011;10384;51.940;8.432;2023-02-26T08:10:55;1.83;;;0.77;;
20449;SDS011;10384;51.940;8.432;2023-02-26T08:13:21;5.40;;;0.93;;
20449;SDS011;10384;51.940;8.432;2023-02-26T08:15:47;1.57;;;0.80;;
20449;SDS011;10384;51.940;8.432;2023-02-26T08:18:13;3.00;;;1.73;;
20449;SDS011;10384;51.940;8.432;2023-02-26T08:20:39;1.67;;;1.10;;
20449;SDS011;10384;51.940;8.432;2023-02-26T08:23:05;3.23;;;1.50;;
20449;SDS011;10384;51.940;8.432;2023-02-26T08:25:31;2.40;;;0.90;;
20449;SDS011;10384;51.940;8.432;2023-02-26T08:27:57;4.60;;;1.10;;
20449;SDS011;10384;51.940;8.432;2023-02-26T08:30:23;5.53;;;2.30;;
20449;SDS011;10384;51.940;8.432;2023-02-26T08:32:49;2.40;;;1.10;;
20449;SDS011;10384;51.940;8.432;2023-02-26T08:35:15;2.00;;;1.20;;
20449;SDS011;10384;51.940;8.432;2023-02-26T08:37:41;2.00;;;0.70;;
20449;SDS011;10384;51.940;8.432;2023-02-26T08:40:07;4.90;;;3.03;;
20449;SDS011;10384;51.940;8.432;2023-02-26T08:42:33;4.90;;;1.50;;
20449;SDS011;10384;51.940;8.432;2023-02-26T08:44:59;4.10;;;1.60;;
20449;SDS011;10384;51.940;8.432;2023-02-26T08:47:25;3.13;;;1.40;;
20449;SDS011;10384;51.940;8.432;2023-02-26T08:49:51;3.07;;;1.00;;
20449;SDS011;10384;51.940;8.432;2023-02-26T08:52:18;13.20;;;1.30;;
20449;SDS011;10384;51.940;8.432;2023-02-26T08:54:44;5.77;;;0.90;;
20449;SDS011;10384;51.940;8.432;2023-02-26T08:57:10;3.50;;;0.80;;
20449;SDS011;10384;51.940;8.432;2023-02-26T08:59:37;2.50;;;0.70;;
20449;SDS011;10384;51.940;8.432;2023-02-26T09:02:03;3.90;;;0.70;;
20449;SDS011;10384;51.940;8.432;2023-02-26T09:04:29;2.37;;;0.73;;
20449;SDS011;10384;51.940;8.432;2023-02-26T09:06:55;2.60;;;1.07;;
20449;SDS011;10384;51.940;8.432;2023-02-26T09:09:21;2.63;;;0.70;;
20449;SDS011;10384;51.940;8.432;2023-02-26T09:11:47;5.03;;;0.93;;
20449;SDS011;10384;51.940;8.432;2023-02-26T09:14:13;1.97;;;0.87;;
20449;SDS011;10384;51.940;8.432;2023-02-26T09:16:39;2.43;;;0.83;;
20449;SDS011;10384;51.940;8.432;2023-02-26T09:19:05;8.23;;;0.93;;
20449;SDS011;10384;51.940;8.432;2023-02-26T09:21:31;1.50;;;0.60;;
20449;SDS011;10384;51.940;8.432;2023-02-26T09:23:57;1.87;;;0.70;;
20449;SDS011;10384;51.940;8.432;2023-02-26T09:26:23;1.90;;;0.70;;
20449;SDS011;10384;51.940;8.432;2023-02-26T09:28:50;1.20;;;0.63;;
20449;SDS011;10384;51.940;8.432;2023-02-26T09:31:16;1.53;;;0.67;;
20449;SDS011;10384;51.940;8.432;2023-02-26T09:33:42;2.10;;;0.87;;
20449;SDS011;10384;51.940;8.432;2023-02-26T09:36:08;2.00;;;0.60;;
20449;SDS011;10384;51.940;8.432;2023-02-26T09:38:35;5.43;;;0.87;;
20449;SDS011;10384;51.940;8.432;2023-02-26T09:41:03;2.10;;;0.73;;
20449;SDS011;10384;51.940;8.432;2023-02-26T09:43:37;3.43;;;0.83;;
20449;SDS011;10384;51.940;8.432;2023-02-26T09:46:21;3.27;;;0.70;;
20449;SDS011;10384;51.940;8.432;2023-02-26T09:48:49;0.77;;;0.70;;
20449;SDS011;10384;51.940;8.432;2023-02-26T09:51:17;2.13;;;0.73;;
20449;SDS011;10384;51.940;8.432;2023-02-26T09:53:45;2.37;;;0.93;;
20449;SDS011;10384;51.940;8.432;2023-02-26T09:56:18;0.57;;;0.50;;
20449;SDS011;10384;51.940;8.432;2023-02-26T09:58:46;0.60;;;0.50;;
20449;SDS011;10384;51.940;8.432;2023-02-26T10:03:48;2.67;;;1.10;;
20449;SDS011;10384;51.940;8.432;2023-02-26T10:06:23;4.90;;;1.53;;
20449;SDS011;10384;51.940;8.432;2023-02-26T10:09:15;4.40;;;0.83;;
20449;SDS011;10384;51.940;8.432;2023-02-26T10:11:46;1.83;;;0.60;;
20449;SDS011;10384;51.940;8.432;2023-02-26T10:14:34;1.83;;;0.60;;
20449;SDS011;10384;51.940;8.432;2023-02-26T10:17:07;1.33;;;0.80;;
20449;SDS011;10384;51.940;8.432;2023-02-26T10:19:39;3.47;;;0.70;;
20449;SDS011;10384;51.940;8.432;2023-02-26T10:24:58;3.60;;;1.23;;
20449;SDS011;10384;51.940;8.432;2023-02-26T10:27:39;1.53;;;0.70;;
20449;SDS011;10384;51.940;8.432;2023-02-26T10:30:13;1.03;;;0.60;;
20449;SDS011;10384;51.940;8.432;2023-02-26T10:32:54;1.13;;;0.60;;
20449;SDS011;10384;51.940;8.432;2023-02-26T10:35:20;2.27;;;0.70;;
20449;SDS011;10384;51.940;8.432;2023-02-26T10:37:55;0.77;;;0.40;;
20449;SDS011;10384;51.940;8.432;2023-02-26T10:48:05;0.50;;;0.50;;
20449;SDS011;10384;51.940;8.432;2023-02-26T10:50:27;3.17;;;0.67;;
20449;SDS011;10384;51.940;8.432;2023-02-26T10:52:54;0.57;;;0.40;;
20449;SDS011;10384;51.940;8.432;2023-02-26T10:57:47;5.10;;;0.70;;
20449;SDS011;10384;51.940;8.432;2023-02-26T11:00:18;1.07;;;0.40;;
20449;SDS011;10384;51.940;8.432;2023-02-26T11:02:45;1.00;;;0.60;;
20449;SDS011;10384;51.940;8.432;2023-02-26T11:05:16;1.10;;;0.57;;
20449;SDS011;10384;51.940;8.432;2023-02-26T11:07:42;1.40;;;0.70;;
20449;SDS011;10384;51.940;8.432;2023-02-26T11:10:15;0.97;;;0.43;;
20449;SDS011;10384;51.940;8.432;2023-02-26T11:12:41;1.20;;;0.60;;
20449;SDS011;10384;51.940;8.432;2023-02-26T11:15:11;1.67;;;0.53;;
20449;SDS011;10384;51.940;8.432;2023-02-26T11:17:37;0.37;;;0.30;;
20449;SDS011;10384;51.940;8.432;2023-02-26T11:20:04;0.43;;;0.40;;
20449;SDS011;10384;51.940;8.432;2023-02-26T11:22:39;0.80;;;0.70;;
20449;SDS011;10384;51.940;8.432;2023-02-26T11:25:12;2.97;;;0.53;;
20449;SDS011;10384;51.940;8.432;2023-02-26T11:27:38;1.90;;;0.50;;
20449;SDS011;10384;51.940;8.432;2023-02-26T11:30:20;0.87;;;0.40;;
20449;SDS011;10384;51.940;8.432;2023-02-26T11:32:49;2.33;;;0.47;;
20449;SDS011;10384;51.940;8.432;2023-02-26T11:35:16;0.30;;;0.30;;
20449;SDS011;10384;51.940;8.432;2023-02-26T11:37:46;0.70;;;0.50;;
20449;SDS011;10384;51.940;8.432;2023-02-26T11:40:14;0.73;;;0.50;;
20449;SDS011;10384;51.940;8.432;2023-02-26T11:42:47;0.30;;;0.30;;
20449;SDS011;10384;51.940;8.432;2023-02-26T11:45:15;2.50;;;0.73;;
20449;SDS011;10384;51.940;8.432;2023-02-26T11:47:41;1.17;;;0.50;;
20449;SDS011;10384;51.940;8.432;2023-02-26T11:50:14;3.27;;;0.70;;
20449;SDS011;10384;51.940;8.432;2023-02-26T11:52:42;1.60;;;0.60;;
20449;SDS011;10384;51.940;8.432;2023-02-26T11:55:19;0.50;;;0.40;;
20449;SDS011;10384;51.940;8.432;2023-02-26T11:57:49;1.00;;;0.50;;
20449;SDS011;10384;51.940;8.432;2023-02-26T12:00:19;1.23;;;0.60;;
20449;SDS011;10384;51.940;8.432;2023-02-26T12:02:48;1.70;;;0.60;;
20449;SDS011;10384;51.940;8.432;2023-02-26T12:05:15;2.10;;;0.60;;
20449;SDS011;10384;51.940;8.432;2023-02-26T12:07:41;1.17;;;0.60;;
20449;SDS011;10384;51.940;8.432;2023-02-26T12:10:17;1.90;;;0.60;;
20449;SDS011;10384;51.940;8.432;2023-02-26T12:13:26;1.33;;;0.30;;
20449;SDS011;10384;51.940;8.432;2023-02-26T12:15:41;0.53;;;0.53;;
20449;SDS011;10384;51.940;8.432;2023-02-26T12:23:35;1.57;;;0.60;;
20449;SDS011;10384;51.940;8.432;2023-02-26T12:36:43;4.73;;;0.60;;
20449;SDS011;10384;51.940;8.432;2023-02-26T12:39:24;4.37;;;0.60;;
20449;SDS011;10384;51.940;8.432;2023-02-26T12:52:37;3.37;;;0.80;;
20449;SDS011;10384;51.940;8.432;2023-02-26T12:57:44;2.50;;;0.70;;
20449;SDS011;10384;51.940;8.432;2023-02-26T13:00:30;0.97;;;0.50;;
20449;SDS011;10384;51.940;8.432;2023-02-26T13:16:03;1.17;;;0.70;;
20449;SDS011;10384;51.940;8.432;2023-02-26T13:18:42;1.07;;;0.67;;
20449;SDS011;10384;51.940;8.432;2023-02-26T13:21:19;2.00;;;0.77;;
20449;SDS011;10384;51.940;8.432;2023-02-26T13:23:48;3.57;;;0.80;;
20449;SDS011;10384;51.940;8.432;2023-02-26T13:26:16;0.77;;;0.53;;
20449;SDS011;10384;51.940;8.432;2023-02-26T13:31:20;1.17;;;0.63;;
20449;SDS011;10384;51.940;8.432;2023-02-26T13:33:47;2.00;;;0.60;;
20449;SDS011;10384;51.940;8.432;2023-02-26T13:36:14;1.27;;;0.70;;
20449;SDS011;10384;51.940;8.432;2023-02-26T13:49:17;2.10;;;0.80;;
20449;SDS011;10384;51.940;8.432;2023-02-26T13:51:45;2.23;;;0.80;;
20449;SDS011;10384;51.940;8.432;2023-02-26T13:56:48;1.17;;;0.60;;
20449;SDS011;10384;51.940;8.432;2023-02-26T14:06:47;0.90;;;0.80;;
20449;SDS011;10384;51.940;8.432;2023-02-26T14:12:02;1.83;;;1.03;;
20449;SDS011;10384;51.940;8.432;2023-02-26T14:14:29;4.33;;;0.87;;
20449;SDS011;10384;51.940;8.432;2023-02-26T14:32:15;2.13;;;0.80;;
20449;SDS011;10384;51.940;8.432;2023-02-26T14:34:48;1.67;;;1.10;;
20449;SDS011;10384;51.940;8.432;2023-02-26T14:37:16;1.53;;;1.00;;
20449;SDS011;10384;51.940;8.432;2023-02-26T14:39:49;1.40;;;0.70;;
20449;SDS011;10384;51.940;8.432;2023-02-26T14:42:22;1.47;;;0.80;;
20449;SDS011;10384;51.940;8.432;2023-02-26T14:44:53;1.03;;;0.70;;
20449;SDS011;10384;51.940;8.432;2023-02-26T14:47:22;1.60;;;0.90;;
20449;SDS011;10384;51.940;8.432;2023-02-26T14:49:48;1.97;;;1.07;;
20449;SDS011;10384;51.940;8.432;2023-02-26T14:55:16;4.53;;;0.60;;
20449;SDS011;10384;51.940;8.432;2023-02-26T14:58:21;1.23;;;0.70;;
20449;SDS011;10384;51.940;8.432;2023-02-26T15:00:51;0.70;;;0.70;;
20449;SDS011;10384;51.940;8.432;2023-02-26T15:05:59;1.30;;;0.60;;
20449;SDS011;10384;51.940;8.432;2023-02-26T15:08:41;1.40;;;0.70;;
20449;SDS011;10384;51.940;8.432;2023-02-26T15:14:12;1.37;;;0.60;;
20449;SDS011;10384;51.940;8.432;2023-02-26T15:16:50;2.17;;;0.80;;
20449;SDS011;10384;51.940;8.432;2023-02-26T15:22:20;1.20;;;0.63;;
20449;SDS011;10384;51.940;8.432;2023-02-26T15:24:49;1.80;;;0.90;;
20449;SDS011;10384;51.940;8.432;2023-02-26T15:27:16;3.97;;;0.90;;
20449;SDS011;10384;51.940;8.432;2023-02-26T15:29:43;0.93;;;0.60;;
20449;SDS011;10384;51.940;8.432;2023-02-26T15:32:22;2.63;;;0.53;;
20449;SDS011;10384;51.940;8.432;2023-02-26T15:34:59;1.40;;;0.77;;
20449;SDS011;10384;51.940;8.432;2023-02-26T15:37:26;0.90;;;0.70;;
20449;SDS011;10384;51.940;8.432;2023-02-26T15:39:55;1.40;;;0.60;;
20449;SDS011;10384;51.940;8.432;2023-02-26T15:42:24;1.17;;;0.50;;
20449;SDS011;10384;51.940;8.432;2023-02-26T15:44:52;2.83;;;0.80;;
20449;SDS011;10384;51.940;8.432;2023-02-26T15:47:18;1.43;;;0.57;;
20449;SDS011;10384;51.940;8.432;2023-02-26T15:49:45;0.60;;;0.60;;
20449;SDS011;10384;51.940;8.432;2023-02-26T15:52:16;1.13;;;0.70;;
20449;SDS011;10384;51.940;8.432;2023-02-26T15:54:51;2.83;;;0.70;;
20449;SDS011;10384;51.940;8.432;2023-02-26T15:57:18;4.03;;;0.70;;
20449;SDS011;10384;51.940;8.432;2023-02-26T15:59:45;0.83;;;0.50;;
20449;SDS011;10384;51.940;8.432;2023-02-26T16:02:16;1.20;;;0.63;;
20449;SDS011;10384;51.940;8.432;2023-02-26T16:04:43;5.13;;;0.90;;
20449;SDS011;10384;51.940;8.432;2023-02-26T16:07:10;1.93;;;0.63;;
20449;SDS011;10384;51.940;8.432;2023-02-26T16:09:46;6.47;;;1.20;;
20449;SDS011;10384;51.940;8.432;2023-02-26T16:12:15;3.93;;;1.40;;
20449;SDS011;10384;51.940;8.432;2023-02-26T16:14:43;2.20;;;0.80;;
20449;SDS011;10384;51.940;8.432;2023-02-26T16:17:11;1.87;;;0.80;;
20449;SDS011;10384;51.940;8.432;2023-02-26T16:19:42;2.17;;;0.60;;
20449;SDS011;10384;51.940;8.432;2023-02-26T16:24:52;1.53;;;1.20;;
20449;SDS011;10384;51.940;8.432;2023-02-26T16:27:20;1.60;;;0.60;;
20449;SDS011;10384;51.940;8.432;2023-02-26T16:29:49;1.13;;;0.70;;
20449;SDS011;10384;51.940;8.432;2023-02-26T16:32:16;2.33;;;1.00;;
20449;SDS011;10384;51.940;8.432;2023-02-26T16:34:49;1.23;;;0.60;;
20449;SDS011;10384;51.940;8.432;2023-02-26T16:37:21;2.43;;;0.80;;
20449;SDS011;10384;51.940;8.432;2023-02-26T16:39:50;3.73;;;0.80;;
20449;SDS011;10384;51.940;8.432;2023-02-26T16:42:21;1.70;;;0.60;;
20449;SDS011;10384;51.940;8.432;2023-02-26T16:45:01;0.70;;;0.70;;
20449;SDS011;10384;51.940;8.432;2023-02-26T16:47:28;1.37;;;0.80;;
20449;SDS011;10384;51.940;8.432;2023-02-26T16:49:55;2.80;;;0.80;;
20449;SDS011;10384;51.940;8.432;2023-02-26T16:52:21;1.00;;;0.60;;
20449;SDS011;10384;51.940;8.432;2023-02-26T16:54:54;0.87;;;0.70;;
20449;SDS011;10384;51.940;8.432;2023-02-26T16:57:22;1.23;;;0.60;;
20449;SDS011;10384;51.940;8.432;2023-02-26T16:59:51;1.57;;;0.70;;
20449;SDS011;10384;51.940;8.432;2023-02-26T17:02:22;1.90;;;0.80;;
20449;SDS011;10384;51.940;8.432;2023-02-26T17:04:50;1.73;;;1.13;;
20449;SDS011;10384;51.940;8.432;2023-02-26T17:07:30;2.93;;;0.90;;
20449;SDS011;10384;51.940;8.432;2023-02-26T17:09:57;3.57;;;0.90;;
20449;SDS011;10384;51.940;8.432;2023-02-26T17:12:42;1.20;;;0.70;;
20449;SDS011;10384;51.940;8.432;2023-02-26T17:15:28;1.20;;;0.80;;
20449;SDS011;10384;51.940;8.432;2023-02-26T17:17:55;1.10;;;0.90;;
20449;SDS011;10384;51.940;8.432;2023-02-26T17:20:25;2.20;;;0.80;;
20449;SDS011;10384;51.940;8.432;2023-02-26T17:22:52;2.10;;;1.30;;
20449;SDS011;10384;51.940;8.432;2023-02-26T17:25:19;1.73;;;1.03;;
20449;SDS011;10384;51.940;8.432;2023-02-26T17:27:49;1.77;;;1.27;;
20449;SDS011;10384;51.940;8.432;2023-02-26T17:30:16;2.27;;;1.10;;
20449;SDS011;10384;51.940;8.432;2023-02-26T17:32:43;3.53;;;0.90;;
20449;SDS011;10384;51.940;8.432;2023-02-26T17:35:13;3.10;;;0.97;;